This is the latest recevied weather packets stored in our database for station/object GOLDWX. If no packets are shown the sender has not sent any weather packets the latest 1 day(s).
| Time | Temp. | Humidity | Pressure | Rain* | Wind** | Luminosity | Snow |
|---|---|---|---|---|---|---|---|
| 1778050537 | 13.33° C | 41% | 1014.7 hPa | 0 mm | - | - | - |
| 1778049935 | 13.33° C | 41% | 1014.8 hPa | 0 mm | - | - | - |
| 1778049033 | 13.33° C | 41% | 1014.6 hPa | 0 mm | - | - | - |
| 1778048128 | 12.78° C | 41% | 1014.6 hPa | 0 mm | - | - | - |
| 1778047828 | 12.78° C | 41% | 1014.5 hPa | 0 mm | - | - | - |
| 1778046323 | 12.78° C | 42% | 1014.3 hPa | 0 mm | - | - | - |
| 1778046022 | 12.78° C | 42% | 1014.4 hPa | 0 mm | - | - | - |
| 1778045120 | 12.22° C | 42% | 1014.2 hPa | 0 mm | - | - | - |
| 1778044217 | 11.67° C | 43% | 1014.2 hPa | 0 mm | - | - | - |
| 1778043615 | 11.67° C | 43% | 1014.1 hPa | 0 mm | - | - | - |
| 1778042713 | 11.67° C | 42% | 1013.9 hPa | 0 mm | - | - | - |
| 1778042412 | 12.22° C | 41% | 1013.8 hPa | 0 mm | - | - | - |
| 1778041810 | 12.78° C | 40% | 1013.7 hPa | 0 mm | - | - | - |
| 1778040908 | 13.89° C | 37% | 1013.4 hPa | 0 mm | - | - | - |
| 1778040607 | 13.89° C | 36% | 1013.3 hPa | 0 mm | - | - | - |
| 1778040006 | 15° C | 32% | 1013.2 hPa | 0 mm | - | - | - |
| 1778037899 | 16.11° C | 30% | 1012.5 hPa | 0 mm | - | - | - |
| 1778037298 | 16.67° C | 30% | 1012.4 hPa | 0 mm | - | - | - |
| 1778036997 | 16.67° C | 30% | 1012.3 hPa | 0 mm | - | - | - |
| 1778036092 | 16.67° C | 29% | 1012.1 hPa | 0 mm | - | - | - |
| 1778035491 | 17.22° C | 29% | 1011.9 hPa | 0 mm | - | - | - |
| 1778035190 | 17.22° C | 29% | 1011.8 hPa | 0 mm | - | - | - |
| 1778034289 | 18.33° C | 28% | 1011.6 hPa | 0 mm | - | - | - |
| 1778032482 | 18.89° C | 26% | 1011.1 hPa | 0 mm | - | - | - |
| 1778031879 | 19.44° C | 26% | 1010.9 hPa | 0 mm | - | - | - |
* Rain since midnight (hover to see other rain measurements)
** Current wind speed in m/s (hover to see current wind gust speed)